Shady Grove, Pennsylvania
Current Conditions -  °F | °C
As of 12:53 PM on Monday 24 Nov 2014 (Local Time) from KHGR Reporting Station
Clear Clear  
Wind Chill: 69°   Ceiling: Unl
Heat Index: 69°   Visibility: 10mi
Dew Point: 52°   Wind: 23mph
Humidity: 54%   Direction: 190°S
Pressure: 29.53"   Gusts: 30mph
Location:  39.78°N, 77.67°W
Report Text: KHGR 241753Z 19020G26KT 10SM CLR 21/11 A2953 RMK AO2 PK WND 18029/1707 SLP006 T02060111 10206 20139 58027
Loading
Personal Weather Stations






























Interactive Weather Map New forecast layout! Learn more

10-Day Weather Forecast

Advertisements
Track Severe Weather on mobile